createdAt,value
2023-05-05T00:00:19.177Z,24.02
2023-05-05T00:01:19.187Z,24.01
2023-05-05T00:02:19.245Z,24.00
2023-05-05T00:03:19.282Z,23.98
2023-05-05T00:04:19.287Z,24.02
2023-05-05T00:05:19.243Z,24.04
2023-05-05T00:06:19.248Z,23.99
2023-05-05T00:07:19.255Z,24.04
2023-05-05T00:08:19.289Z,23.99
2023-05-05T00:09:19.333Z,24.04
2023-05-05T00:10:19.391Z,24.06
2023-05-05T00:11:19.349Z,24.06
2023-05-05T00:12:19.402Z,24.06
2023-05-05T00:13:19.418Z,24.05
2023-05-05T00:14:19.421Z,24.02
2023-05-05T00:15:19.473Z,24.01
2023-05-05T00:16:19.543Z,24.06
2023-05-05T00:17:19.555Z,24.04
2023-05-05T00:18:19.494Z,24.08
2023-05-05T00:19:19.546Z,24.11
2023-05-05T00:20:19.567Z,24.08
2023-05-05T00:21:19.688Z,24.05
2023-05-05T00:22:19.599Z,24.12
2023-05-05T00:23:19.639Z,24.12
2023-05-05T00:24:19.642Z,24.02
2023-05-05T00:25:19.655Z,24.12
2023-05-05T00:26:19.710Z,24.11
2023-05-05T00:27:19.697Z,24.06
2023-05-05T00:28:19.728Z,24.03
2023-05-05T00:29:19.781Z,24.09
2023-05-05T00:30:19.792Z,24.04
2023-05-05T00:31:19.872Z,24.13
2023-05-05T00:32:19.861Z,24.11
2023-05-05T00:33:19.863Z,24.12
2023-05-05T00:34:19.884Z,24.12
2023-05-05T00:35:19.937Z,24.15
2023-05-05T00:36:19.905Z,24.10
2023-05-05T00:37:19.924Z,24.02
2023-05-05T00:38:19.960Z,24.12
2023-05-05T00:39:20.012Z,24.08
2023-05-05T00:40:20.026Z,24.03
2023-05-05T00:41:20.025Z,24.08
2023-05-05T00:42:20.040Z,24.13
2023-05-05T00:43:20.058Z,24.15
2023-05-05T00:44:20.144Z,24.13
2023-05-05T00:45:20.170Z,24.19
2023-05-05T00:46:20.211Z,24.13
2023-05-05T00:47:20.136Z,24.15
2023-05-05T00:48:20.189Z,24.12
2023-05-05T00:49:20.206Z,24.12
2023-05-05T00:50:20.235Z,24.13
2023-05-05T00:51:20.253Z,24.19
2023-05-05T00:52:20.253Z,24.18
2023-05-05T00:53:20.312Z,24.20
2023-05-05T00:54:20.317Z,24.12
2023-05-05T00:55:20.339Z,24.15
2023-05-05T00:56:20.325Z,24.15
2023-05-05T00:57:20.383Z,24.20
2023-05-05T00:58:20.369Z,24.15
2023-05-05T00:59:20.436Z,24.17
2023-05-05T01:00:20.470Z,24.16
2023-05-05T01:01:20.501Z,24.16
2023-05-05T01:02:20.513Z,24.18
2023-05-05T01:03:20.608Z,24.19
2023-05-05T01:04:20.546Z,24.17
2023-05-05T01:05:20.594Z,24.17
2023-05-05T01:06:20.604Z,24.17
2023-05-05T01:07:20.601Z,24.17
2023-05-05T01:08:20.658Z,24.17
2023-05-05T01:09:20.645Z,24.17
2023-05-05T01:10:21.078Z,24.16
2023-05-05T01:11:20.799Z,24.20
2023-05-05T01:12:20.742Z,24.20
2023-05-05T01:13:20.775Z,24.24
2023-05-05T01:14:20.804Z,24.20
2023-05-05T01:15:20.821Z,24.19
2023-05-05T01:16:20.902Z,24.22
2023-05-05T01:17:20.886Z,24.21
2023-05-05T01:18:20.891Z,24.21
2023-05-05T01:19:20.933Z,24.20
2023-05-05T01:20:20.925Z,24.21
2023-05-05T01:21:21.493Z,24.17
2023-05-05T01:22:21.032Z,24.17
2023-05-05T01:23:21.021Z,24.26
2023-05-05T01:24:21.069Z,24.19
2023-05-05T01:25:21.087Z,24.20
2023-05-05T01:26:21.146Z,24.21
2023-05-05T01:27:21.166Z,24.23
2023-05-05T01:28:21.169Z,24.27
2023-05-05T01:29:21.159Z,24.24
2023-05-05T01:30:21.231Z,24.23
2023-05-05T01:31:21.311Z,24.24
2023-05-05T01:32:21.313Z,24.24
2023-05-05T01:33:21.322Z,24.25
2023-05-05T01:34:21.357Z,24.26
2023-05-05T01:35:21.362Z,24.20
2023-05-05T01:36:21.364Z,24.24
2023-05-05T01:37:21.399Z,24.27
2023-05-05T01:38:21.569Z,24.26
2023-05-05T01:39:21.461Z,24.26
2023-05-05T01:40:21.494Z,24.28
2023-05-05T01:41:21.545Z,24.27
2023-05-05T01:42:21.535Z,24.26
2023-05-05T01:43:21.572Z,24.34
2023-05-05T01:44:21.625Z,24.25
2023-05-05T01:45:21.603Z,24.27
2023-05-05T01:46:21.680Z,24.26
2023-05-05T01:47:21.703Z,24.30
2023-05-05T01:48:21.728Z,24.30
2023-05-05T01:49:21.728Z,24.27
2023-05-05T01:50:21.743Z,24.31
2023-05-05T01:51:21.768Z,24.31
2023-05-05T01:52:21.808Z,24.27
2023-05-05T01:53:21.891Z,24.28
2023-05-05T01:54:21.895Z,24.27
2023-05-05T01:55:21.925Z,24.30
2023-05-05T01:56:21.959Z,24.33
2023-05-05T01:57:21.982Z,24.28
2023-05-05T01:58:21.980Z,24.34
2023-05-05T01:59:22.024Z,24.24
2023-05-05T02:00:22.098Z,24.31
2023-05-05T02:01:22.113Z,24.34
2023-05-05T02:02:22.185Z,24.31
2023-05-05T02:03:22.301Z,24.33
2023-05-05T02:04:22.207Z,24.30
2023-05-05T02:05:22.242Z,24.30
2023-05-05T02:06:22.260Z,24.35
2023-05-05T02:07:22.292Z,24.37
2023-05-05T02:08:22.276Z,24.34
2023-05-05T02:09:22.336Z,24.31
2023-05-05T02:10:22.397Z,24.33
2023-05-05T02:11:22.377Z,24.33
2023-05-05T02:12:22.400Z,24.34
2023-05-05T02:13:22.502Z,24.34
2023-05-05T02:14:22.503Z,24.33
2023-05-05T02:15:22.568Z,24.35
2023-05-05T02:16:22.593Z,24.33
2023-05-05T02:17:22.686Z,24.40
2023-05-05T02:18:22.599Z,24.37
2023-05-05T02:19:22.639Z,24.35
2023-05-05T02:20:22.680Z,24.35
2023-05-05T02:21:22.769Z,24.33
2023-05-05T02:22:22.750Z,24.38
2023-05-05T02:23:22.736Z,24.37
2023-05-05T02:24:22.829Z,24.35
2023-05-05T02:25:22.835Z,24.34
2023-05-05T02:26:22.864Z,24.37
2023-05-05T02:27:22.998Z,24.33
2023-05-05T02:28:22.918Z,24.37
2023-05-05T02:29:22.968Z,24.42
2023-05-05T02:30:22.962Z,24.35
2023-05-05T02:31:23.091Z,24.42
2023-05-05T02:32:23.103Z,24.35
2023-05-05T02:33:23.081Z,24.38
2023-05-05T02:34:23.093Z,24.44
2023-05-05T02:35:23.116Z,24.41
2023-05-05T02:36:23.144Z,24.37
2023-05-05T02:37:23.226Z,24.41
2023-05-05T02:38:23.206Z,24.35
2023-05-05T02:39:23.287Z,24.42
2023-05-05T02:40:23.270Z,24.39
2023-05-05T02:41:23.315Z,24.40
2023-05-05T02:42:23.358Z,24.40
2023-05-05T02:43:23.396Z,24.38
2023-05-05T02:44:23.421Z,24.41
2023-05-05T02:45:23.464Z,24.45
2023-05-05T02:46:23.487Z,24.41
2023-05-05T02:47:23.535Z,24.41
2023-05-05T02:48:23.516Z,24.41
2023-05-05T02:49:23.576Z,24.48
2023-05-05T02:50:23.565Z,24.45
2023-05-05T02:51:23.640Z,24.42
2023-05-05T02:52:23.643Z,24.38
2023-05-05T02:53:23.644Z,24.41
2023-05-05T02:54:23.700Z,24.44
2023-05-05T02:55:23.771Z,24.44
2023-05-05T02:56:23.778Z,24.41
2023-05-05T02:57:23.813Z,24.41
2023-05-05T02:58:23.825Z,24.42
2023-05-05T02:59:23.888Z,24.45
2023-05-05T03:00:23.907Z,24.45
2023-05-05T03:01:23.929Z,24.45
2023-05-05T03:02:23.973Z,24.44
2023-05-05T03:03:24.101Z,24.41
2023-05-05T03:04:24.036Z,24.45
2023-05-05T03:05:24.089Z,24.46
2023-05-05T03:06:24.155Z,24.45
2023-05-05T03:07:24.224Z,24.44
2023-05-05T03:08:24.153Z,24.49
2023-05-05T03:09:24.222Z,24.49
2023-05-05T03:10:24.242Z,24.51
2023-05-05T03:11:24.271Z,24.48
2023-05-05T03:12:24.296Z,24.42
2023-05-05T03:13:24.317Z,24.48
2023-05-05T03:14:24.448Z,24.49
2023-05-05T03:15:24.410Z,24.48
2023-05-05T03:16:24.492Z,24.46
2023-05-05T03:17:24.597Z,24.44
2023-05-05T03:18:24.548Z,24.48
2023-05-05T03:19:24.671Z,24.46
2023-05-05T03:20:24.591Z,24.50
2023-05-05T03:21:24.763Z,24.48
2023-05-05T03:22:24.698Z,24.51
2023-05-05T03:23:24.705Z,24.49
2023-05-05T03:24:24.724Z,24.52
2023-05-05T03:25:24.782Z,24.46
2023-05-05T03:26:24.787Z,24.50
2023-05-05T03:27:24.839Z,24.49
2023-05-05T03:28:24.937Z,24.49
2023-05-05T03:29:24.912Z,24.53
2023-05-05T03:30:24.971Z,24.49
2023-05-05T03:31:25.068Z,24.49
2023-05-05T03:32:25.099Z,24.50
2023-05-05T03:33:25.102Z,24.53
2023-05-05T03:34:25.157Z,24.52
2023-05-05T03:35:25.218Z,24.51
2023-05-05T03:36:27.205Z,24.53
2023-05-05T03:37:25.237Z,24.52
2023-05-05T03:38:25.229Z,24.53
2023-05-05T03:39:25.229Z,24.53
2023-05-05T03:40:36.200Z,24.50
2023-05-05T03:41:26.227Z,24.53
2023-05-05T03:42:25.206Z,24.55
2023-05-05T03:43:25.215Z,24.49
2023-05-05T03:44:25.230Z,24.56
2023-05-05T03:45:25.204Z,24.56
2023-05-05T03:46:25.171Z,24.52
2023-05-05T03:47:25.162Z,24.56
2023-05-05T03:48:25.173Z,24.56
2023-05-05T03:49:25.145Z,24.57
2023-05-05T03:50:25.168Z,24.55
2023-05-05T03:51:25.129Z,24.53
2023-05-05T03:52:25.116Z,24.53
2023-05-05T03:53:25.134Z,24.60
2023-05-05T03:54:25.119Z,24.53
2023-05-05T03:55:25.173Z,24.56
2023-05-05T03:56:25.159Z,24.63
2023-05-05T03:57:25.196Z,24.57
2023-05-05T03:58:25.209Z,24.55
2023-05-05T03:59:25.266Z,24.55
2023-05-05T04:00:25.290Z,24.57
2023-05-05T04:01:25.372Z,24.57
2023-05-05T04:02:25.505Z,24.53
2023-05-05T04:03:25.572Z,24.56
2023-05-05T04:04:25.506Z,24.56
2023-05-05T04:05:25.488Z,24.60
2023-05-05T04:06:25.537Z,24.60
2023-05-05T04:07:25.584Z,24.63
2023-05-05T04:08:25.621Z,24.67
2023-05-05T04:09:25.631Z,24.62
2023-05-05T04:10:25.693Z,24.69
2023-05-05T04:11:25.741Z,24.67
2023-05-05T04:12:25.773Z,24.73
2023-05-05T04:13:25.878Z,24.82
2023-05-05T04:14:25.884Z,24.74
2023-05-05T04:15:25.898Z,24.77
2023-05-05T04:16:26.038Z,24.87
2023-05-05T04:17:26.044Z,24.80
2023-05-05T04:18:26.098Z,24.87
2023-05-05T04:19:26.132Z,24.86
2023-05-05T04:20:26.201Z,24.90
2023-05-05T04:21:26.238Z,24.97
2023-05-05T04:22:26.323Z,24.94
2023-05-05T04:23:26.334Z,24.95
2023-05-05T04:24:26.367Z,25.00
2023-05-05T04:25:26.420Z,25.07
2023-05-05T04:26:26.506Z,25.05
2023-05-05T04:27:26.538Z,25.08
2023-05-05T04:28:26.592Z,25.08
2023-05-05T04:29:26.647Z,25.11
2023-05-05T04:30:26.656Z,25.10
2023-05-05T04:31:26.774Z,25.14
2023-05-05T04:32:26.859Z,25.18
2023-05-05T04:33:26.840Z,25.18
2023-05-05T04:34:26.889Z,25.17
2023-05-05T04:35:26.932Z,25.14
2023-05-05T04:36:26.979Z,25.18
2023-05-05T04:37:27.032Z,25.18
2023-05-05T04:38:27.119Z,25.24
2023-05-05T04:39:27.092Z,25.21
2023-05-05T04:40:27.167Z,25.20
2023-05-05T04:41:28.904Z,25.20
2023-05-05T04:42:27.190Z,25.18
2023-05-05T04:43:27.184Z,25.23
2023-05-05T04:44:27.136Z,25.11
2023-05-05T04:45:27.140Z,25.16
2023-05-05T04:46:27.182Z,25.11
2023-05-05T04:47:27.245Z,25.17
2023-05-05T04:48:27.125Z,25.11
2023-05-05T04:49:27.117Z,25.11
2023-05-05T04:50:27.102Z,25.11
2023-05-05T04:51:27.103Z,25.10
2023-05-05T04:52:27.120Z,25.06
2023-05-05T04:53:27.102Z,25.08
2023-05-05T04:54:27.166Z,25.07
2023-05-05T04:55:27.075Z,25.09
2023-05-05T04:56:27.058Z,25.09
2023-05-05T04:57:27.069Z,25.09
2023-05-05T04:58:27.080Z,25.08
2023-05-05T04:59:27.051Z,25.06
2023-05-05T05:00:27.027Z,25.10
2023-05-05T05:01:27.108Z,25.02
2023-05-05T05:02:27.064Z,25.08
2023-05-05T05:03:27.153Z,25.00
2023-05-05T05:04:26.985Z,25.04
2023-05-05T05:05:27.002Z,25.02
2023-05-05T05:06:27.037Z,25.04
2023-05-05T05:07:26.992Z,25.02
2023-05-05T05:08:27.012Z,24.99
2023-05-05T05:09:26.995Z,24.99
2023-05-05T05:10:26.960Z,24.97
2023-05-05T05:11:26.974Z,25.01
2023-05-05T05:12:26.947Z,24.98
2023-05-05T05:13:27.006Z,24.99
2023-05-05T05:14:26.985Z,25.01
2023-05-05T05:15:26.936Z,25.04
2023-05-05T05:16:27.060Z,25.01
2023-05-05T05:17:27.013Z,25.02
2023-05-05T05:18:26.959Z,25.04
2023-05-05T05:19:26.911Z,24.98
2023-05-05T05:20:26.892Z,25.00
2023-05-05T05:21:26.930Z,25.01
2023-05-05T05:22:26.893Z,25.00
2023-05-05T05:23:26.925Z,25.01
2023-05-05T05:24:26.869Z,25.01
2023-05-05T05:25:26.883Z,25.01
2023-05-05T05:26:26.861Z,24.94
2023-05-05T05:27:26.879Z,25.01
2023-05-05T05:28:26.877Z,25.05
2023-05-05T05:29:26.847Z,25.10
2023-05-05T05:30:26.855Z,25.09
2023-05-05T05:31:26.847Z,25.09
2023-05-05T05:32:26.940Z,25.04
2023-05-05T05:33:26.991Z,25.10
2023-05-05T05:34:26.834Z,25.09
2023-05-05T05:35:26.838Z,25.50
2023-05-05T05:36:27.034Z,25.49
2023-05-05T05:37:26.905Z,25.92
2023-05-05T05:38:26.815Z,25.91
2023-05-05T05:39:26.812Z,26.36
2023-05-05T05:40:26.856Z,26.72
2023-05-05T05:41:26.768Z,26.89
2023-05-05T05:42:27.884Z,27.25
2023-05-05T05:43:26.775Z,27.06
2023-05-05T05:44:27.037Z,27.11
2023-05-05T05:45:26.740Z,26.90
2023-05-05T05:46:26.776Z,27.14
2023-05-05T05:47:26.769Z,27.99
2023-05-05T05:48:26.804Z,27.56
2023-05-05T05:49:26.714Z,27.31
2023-05-05T05:50:26.790Z,27.10
2023-05-05T05:51:26.728Z,26.90
2023-05-05T05:52:26.696Z,26.78
2023-05-05T05:53:26.699Z,26.74
2023-05-05T05:54:27.070Z,26.66
2023-05-05T05:55:26.692Z,26.66
2023-05-05T05:56:26.736Z,26.60
2023-05-05T05:57:27.037Z,26.51
2023-05-05T05:58:26.667Z,26.46
2023-05-05T05:59:26.735Z,26.51
2023-05-05T06:00:26.758Z,26.49
2023-05-05T06:01:26.632Z,26.34
2023-05-05T06:02:26.847Z,26.39
2023-05-05T06:03:26.985Z,26.28
2023-05-05T06:04:26.711Z,26.25
2023-05-05T06:05:26.622Z,26.19
2023-05-05T06:06:26.689Z,26.14
2023-05-05T06:07:26.735Z,26.12
2023-05-05T06:08:27.063Z,26.11
2023-05-05T06:09:26.849Z,26.05
2023-05-05T06:10:28.301Z,25.99
2023-05-05T06:11:26.956Z,25.97
2023-05-05T06:12:26.992Z,25.90
2023-05-05T06:13:27.588Z,25.91
2023-05-05T06:14:27.114Z,25.80
2023-05-05T06:15:27.154Z,25.83
2023-05-05T06:16:27.231Z,25.76
2023-05-05T06:17:27.241Z,25.75
2023-05-05T06:18:27.382Z,25.72
2023-05-05T06:19:27.346Z,25.68
2023-05-05T06:20:27.391Z,25.61
2023-05-05T06:21:27.519Z,25.58
2023-05-05T06:22:27.457Z,25.62
2023-05-05T06:23:27.509Z,25.59
2023-05-05T06:24:27.576Z,25.59
2023-05-05T06:25:27.580Z,25.53
2023-05-05T06:26:27.607Z,25.44
2023-05-05T06:27:27.643Z,25.43
2023-05-05T06:28:28.030Z,25.35
2023-05-05T06:29:27.726Z,25.30
2023-05-05T06:30:27.737Z,25.24
2023-05-05T06:31:27.752Z,25.13
2023-05-05T06:32:27.779Z,25.19
2023-05-05T06:33:27.722Z,25.08
2023-05-05T06:34:27.743Z,25.04
2023-05-05T06:35:27.851Z,25.01
2023-05-05T06:36:27.758Z,24.98
2023-05-05T06:37:27.767Z,24.93
2023-05-05T06:38:27.752Z,24.88
2023-05-05T06:39:27.728Z,24.86
2023-05-05T06:40:28.098Z,24.87
2023-05-05T06:41:27.825Z,24.81
2023-05-05T06:42:27.881Z,24.78
2023-05-05T06:43:27.888Z,24.80
2023-05-05T06:44:27.972Z,24.77
2023-05-05T06:45:28.009Z,24.80
2023-05-05T06:46:28.103Z,24.75
2023-05-05T06:47:28.147Z,24.70
2023-05-05T06:48:28.226Z,24.73
2023-05-05T06:49:28.253Z,24.73
2023-05-05T06:50:28.286Z,24.72
2023-05-05T06:51:28.398Z,24.71
2023-05-05T06:52:28.588Z,24.68
2023-05-05T06:53:28.469Z,24.68
2023-05-05T06:54:28.550Z,24.74
2023-05-05T06:55:29.072Z,24.66
2023-05-05T06:56:29.135Z,24.67
2023-05-05T06:57:28.724Z,24.63
2023-05-05T06:58:28.777Z,24.64
2023-05-05T06:59:28.907Z,24.63
2023-05-05T07:00:28.854Z,24.70
2023-05-05T07:01:28.927Z,24.68
2023-05-05T07:02:28.994Z,24.76
2023-05-05T07:03:29.018Z,24.67
2023-05-05T07:04:29.565Z,24.70
2023-05-05T07:05:29.142Z,24.70
2023-05-05T07:06:29.184Z,24.73
2023-05-05T07:07:29.198Z,24.72
2023-05-05T07:08:29.593Z,24.69
2023-05-05T07:09:29.299Z,24.76
2023-05-05T07:10:29.416Z,24.72
2023-05-05T07:11:29.382Z,24.71
2023-05-05T07:12:29.500Z,24.75
2023-05-05T07:13:29.838Z,24.73
2023-05-05T07:14:29.471Z,24.73
2023-05-05T07:15:29.887Z,24.76
2023-05-05T07:16:29.543Z,24.72
2023-05-05T07:17:29.623Z,24.77
2023-05-05T07:18:29.596Z,24.75
2023-05-05T07:19:29.650Z,24.74
2023-05-05T07:20:29.653Z,24.78
2023-05-05T07:21:29.680Z,24.79
2023-05-05T07:22:29.662Z,24.79
2023-05-05T07:23:29.686Z,24.81
2023-05-05T07:24:29.731Z,24.85
2023-05-05T07:25:29.680Z,24.82
2023-05-05T07:26:29.689Z,24.85
2023-05-05T07:27:29.725Z,24.87
2023-05-05T07:28:30.141Z,24.88
2023-05-05T07:29:29.752Z,24.87
2023-05-05T07:30:29.760Z,24.94
2023-05-05T07:31:29.785Z,24.91
2023-05-05T07:32:29.876Z,24.94
2023-05-05T07:33:29.762Z,25.25
2023-05-05T07:34:29.775Z,25.65
2023-05-05T07:35:30.102Z,25.65
2023-05-05T07:36:29.856Z,25.65
2023-05-05T07:37:29.853Z,25.81
2023-05-05T07:38:30.189Z,25.78
2023-05-05T07:39:30.122Z,25.79
2023-05-05T07:40:30.218Z,25.79
2023-05-05T07:41:29.918Z,25.74
2023-05-05T07:42:29.965Z,25.68
2023-05-05T07:43:29.933Z,25.60
2023-05-05T07:44:30.151Z,25.53
2023-05-05T07:45:30.086Z,25.56
2023-05-05T07:46:29.966Z,25.47
2023-05-05T07:47:30.239Z,25.47
2023-05-05T07:48:29.968Z,25.43
2023-05-05T07:49:30.073Z,25.43
2023-05-05T07:50:30.095Z,25.40
2023-05-05T07:51:30.206Z,25.38
2023-05-05T07:52:44.307Z,25.31
2023-05-05T07:53:31.124Z,25.28
2023-05-05T07:54:30.106Z,25.25
2023-05-05T07:55:30.034Z,25.28
2023-05-05T07:56:30.013Z,25.18
2023-05-05T07:57:30.026Z,25.18
2023-05-05T07:58:30.006Z,25.15
2023-05-05T07:59:29.998Z,25.12
2023-05-05T08:00:30.185Z,25.12
2023-05-05T08:01:30.053Z,25.14
2023-05-05T08:02:30.109Z,25.13
2023-05-05T08:03:30.165Z,25.14
2023-05-05T08:04:30.012Z,25.06
2023-05-05T08:05:29.981Z,25.11
2023-05-05T08:06:29.997Z,25.12
2023-05-05T08:07:29.923Z,25.08
2023-05-05T08:08:29.957Z,25.04
2023-05-05T08:09:29.969Z,25.05
2023-05-05T08:10:29.953Z,25.03
2023-05-05T08:11:29.912Z,25.05
2023-05-05T08:12:29.931Z,25.03
2023-05-05T08:13:29.917Z,25.06
2023-05-05T08:14:29.907Z,25.04
2023-05-05T08:15:29.862Z,25.06
2023-05-05T08:16:30.129Z,25.13
2023-05-05T08:17:29.959Z,25.13
2023-05-05T08:18:30.552Z,25.10
2023-05-05T08:19:29.910Z,25.11
2023-05-05T08:20:30.110Z,25.09
2023-05-05T08:21:29.889Z,25.14
2023-05-05T08:22:29.955Z,25.17
2023-05-05T08:23:29.931Z,25.10
2023-05-05T08:24:30.008Z,25.13
2023-05-05T08:25:30.095Z,25.13
2023-05-05T08:26:30.091Z,25.40
2023-05-05T08:27:30.100Z,26.27
2023-05-05T08:28:30.226Z,26.02
2023-05-05T08:29:30.627Z,25.81
2023-05-05T08:30:30.118Z,25.64
2023-05-05T08:31:30.194Z,24.80
2023-05-05T08:32:30.333Z,24.74
2023-05-05T08:33:30.223Z,25.03
2023-05-05T08:34:30.284Z,24.17
2023-05-05T08:35:30.343Z,23.61
2023-05-05T08:36:30.394Z,23.69
2023-05-05T08:37:30.605Z,23.70
2023-05-05T08:38:30.487Z,23.67
2023-05-05T08:39:30.596Z,23.60
2023-05-05T08:40:30.629Z,23.80
2023-05-05T08:41:30.681Z,23.44
2023-05-05T08:42:37.977Z,23.59
2023-05-05T08:43:32.114Z,23.99
2023-05-05T08:44:30.714Z,24.45
2023-05-05T08:45:30.790Z,24.82
2023-05-05T08:46:31.188Z,25.05
2023-05-05T08:47:30.778Z,24.87
2023-05-05T08:48:30.793Z,25.30
2023-05-05T08:49:30.698Z,25.43
2023-05-05T08:50:30.709Z,25.52
2023-05-05T08:51:30.703Z,25.63
2023-05-05T08:52:30.827Z,25.70
2023-05-05T08:53:30.888Z,25.77
2023-05-05T08:54:31.142Z,25.99
2023-05-05T08:55:30.884Z,25.79
2023-05-05T08:56:30.878Z,25.89
2023-05-05T08:57:30.918Z,25.98
2023-05-05T08:58:30.926Z,25.84
2023-05-05T08:59:30.979Z,26.00
2023-05-05T09:00:31.029Z,25.71
2023-05-05T09:01:31.097Z,25.77
2023-05-05T09:02:31.086Z,25.63
2023-05-05T09:03:31.075Z,25.57
2023-05-05T09:04:31.281Z,25.44
2023-05-05T09:05:31.107Z,25.47
2023-05-05T09:06:31.066Z,25.28
2023-05-05T09:07:31.142Z,25.09
2023-05-05T09:08:31.129Z,24.51
2023-05-05T09:09:31.138Z,24.10
2023-05-05T09:10:31.158Z,24.17
2023-05-05T09:11:31.185Z,23.81
2023-05-05T09:12:31.717Z,23.95
2023-05-05T09:13:31.623Z,23.65
2023-05-05T09:14:31.229Z,23.67
2023-05-05T09:15:31.280Z,23.06
2023-05-05T09:16:31.342Z,22.82
2023-05-05T09:17:31.368Z,22.38
2023-05-05T09:18:31.657Z,22.07
2023-05-05T09:19:31.620Z,22.08
2023-05-05T09:20:31.695Z,22.10
2023-05-05T09:21:31.515Z,22.11
2023-05-05T09:22:31.560Z,22.07
2023-05-05T09:23:31.685Z,22.44
2023-05-05T09:24:31.653Z,22.67
2023-05-05T09:25:31.716Z,22.82
2023-05-05T09:26:31.755Z,22.96
2023-05-05T09:27:32.108Z,22.99
2023-05-05T09:28:32.118Z,23.22
2023-05-05T09:29:31.936Z,23.27
2023-05-05T09:30:32.059Z,23.21
2023-05-05T09:31:32.094Z,23.33
2023-05-05T09:32:32.157Z,23.54
2023-05-05T09:33:32.178Z,23.77
2023-05-05T09:34:32.149Z,24.16
2023-05-05T09:35:32.237Z,23.87
2023-05-05T09:36:33.181Z,23.92
2023-05-05T09:37:32.304Z,24.08
2023-05-05T09:38:32.658Z,23.95
2023-05-05T09:39:32.314Z,23.68
2023-05-05T09:40:32.344Z,23.26
2023-05-05T09:41:32.405Z,23.36
2023-05-05T09:42:32.410Z,23.16
2023-05-05T09:43:32.654Z,23.10
2023-05-05T09:44:32.425Z,23.10
2023-05-05T09:45:32.457Z,23.15
2023-05-05T09:46:32.542Z,22.76
2023-05-05T09:47:32.955Z,22.39
2023-05-05T09:48:32.694Z,22.44
2023-05-05T09:49:32.531Z,22.55
2023-05-05T09:50:32.664Z,22.41
2023-05-05T09:51:32.586Z,22.64
2023-05-05T09:52:32.691Z,22.75
2023-05-05T09:53:33.141Z,23.17
2023-05-05T09:54:32.709Z,23.22
2023-05-05T09:55:32.744Z,23.16
2023-05-05T09:56:32.701Z,23.24
2023-05-05T09:57:32.787Z,22.94
2023-05-05T09:58:32.806Z,22.82
2023-05-05T09:59:32.853Z,22.36
2023-05-05T10:00:32.892Z,22.41
2023-05-05T10:01:32.956Z,22.39
2023-05-05T10:02:33.087Z,22.42
2023-05-05T10:03:33.038Z,22.46
2023-05-05T10:04:33.163Z,22.48
2023-05-05T10:05:33.149Z,22.33
2023-05-05T10:06:33.209Z,22.22
2023-05-05T10:07:33.263Z,22.27
2023-05-05T10:08:33.388Z,22.27
2023-05-05T10:09:33.337Z,22.27
2023-05-05T10:10:33.405Z,22.19
2023-05-05T10:11:33.457Z,22.65
2023-05-05T10:12:33.536Z,22.82
2023-05-05T10:13:33.557Z,22.76
2023-05-05T10:14:33.629Z,22.72
2023-05-05T10:15:33.808Z,22.81
2023-05-05T10:16:34.205Z,22.84
2023-05-05T10:17:33.894Z,22.80
2023-05-05T10:18:33.920Z,22.80
2023-05-05T10:19:33.955Z,22.86
2023-05-05T10:20:34.020Z,22.91
2023-05-05T10:21:34.090Z,22.85
2023-05-05T10:22:34.135Z,22.95
2023-05-05T10:23:34.123Z,23.10
2023-05-05T10:24:34.278Z,23.17
2023-05-05T10:25:34.266Z,23.21
2023-05-05T10:26:34.343Z,23.36
2023-05-05T10:27:34.376Z,23.43
2023-05-05T10:28:34.452Z,23.47
2023-05-05T10:29:34.505Z,23.50
2023-05-05T10:30:34.499Z,23.50
2023-05-05T10:31:34.619Z,23.63
2023-05-05T10:33:35.752Z,23.61
2023-05-05T10:34:34.657Z,23.72
2023-05-05T10:35:34.581Z,23.88
2023-05-05T10:36:34.595Z,23.84
2023-05-05T10:37:34.672Z,23.81
2023-05-05T10:38:34.548Z,23.82
2023-05-05T10:39:34.558Z,23.92
2023-05-05T10:40:34.538Z,24.05
2023-05-05T10:41:34.655Z,24.01
2023-05-05T10:42:34.538Z,24.00
2023-05-05T10:43:34.501Z,24.19
2023-05-05T10:44:34.497Z,24.30
2023-05-05T10:45:34.654Z,24.48
2023-05-05T10:46:34.552Z,24.67
2023-05-05T10:47:34.538Z,24.55
2023-05-05T10:48:34.506Z,24.55
2023-05-05T10:49:34.488Z,24.58
2023-05-05T10:50:34.489Z,24.48
2023-05-05T10:51:40.354Z,24.46
2023-05-05T10:52:35.672Z,24.53
2023-05-05T10:53:34.465Z,24.43
2023-05-05T10:54:35.766Z,24.43
2023-05-05T10:55:34.675Z,24.39
2023-05-05T10:56:34.453Z,24.46
2023-05-05T10:57:34.690Z,24.49
2023-05-05T10:58:40.804Z,24.63
2023-05-05T10:59:35.425Z,24.76
2023-05-05T11:00:34.394Z,24.93
2023-05-05T11:01:34.627Z,25.14
2023-05-05T11:02:34.714Z,25.13
2023-05-05T11:03:34.424Z,25.47
2023-05-05T11:04:34.366Z,25.65
2023-05-05T11:05:34.391Z,25.63
2023-05-05T11:06:34.389Z,25.88
2023-05-05T11:07:34.705Z,26.05
2023-05-05T11:08:34.350Z,26.10
2023-05-05T11:09:34.327Z,26.15
2023-05-05T11:10:34.476Z,26.28
2023-05-05T11:11:34.318Z,26.42
2023-05-05T11:12:36.067Z,26.58
2023-05-05T11:13:34.310Z,26.57
2023-05-05T11:14:34.669Z,26.72
2023-05-05T11:15:34.320Z,27.12
2023-05-05T11:16:34.358Z,27.58
2023-05-05T11:17:34.345Z,27.20
2023-05-05T11:18:34.263Z,26.99
2023-05-05T11:19:34.715Z,26.71
2023-05-05T11:20:34.249Z,26.66
2023-05-05T11:21:34.687Z,26.57
2023-05-05T11:22:34.230Z,26.37
2023-05-05T11:23:34.251Z,26.24
2023-05-05T11:24:34.276Z,26.10
2023-05-05T11:25:34.239Z,26.04
2023-05-05T11:26:34.221Z,25.85
2023-05-05T11:27:34.253Z,25.76
2023-05-05T11:28:34.280Z,25.64
2023-05-05T11:29:34.245Z,25.58
2023-05-05T11:30:34.218Z,25.45
2023-05-05T11:31:34.247Z,25.37
2023-05-05T11:32:34.320Z,25.25
2023-05-05T11:33:34.230Z,25.14
2023-05-05T11:34:34.160Z,25.04
2023-05-05T11:35:34.164Z,24.94
2023-05-05T11:36:34.204Z,24.84
2023-05-05T11:37:34.139Z,24.76
2023-05-05T11:38:34.207Z,24.63
2023-05-05T11:39:34.153Z,24.60
2023-05-05T11:40:34.165Z,24.51
2023-05-05T11:41:34.108Z,24.41
2023-05-05T11:42:34.114Z,24.39
2023-05-05T11:43:34.083Z,24.22
2023-05-05T11:44:34.173Z,24.10
2023-05-05T11:45:34.139Z,24.09
2023-05-05T11:46:34.080Z,24.03
2023-05-05T11:47:34.109Z,23.90
2023-05-05T11:48:34.059Z,23.84
2023-05-05T11:49:34.092Z,23.85
2023-05-05T11:50:34.068Z,23.69
2023-05-05T11:51:34.054Z,23.59
2023-05-05T11:52:34.042Z,23.41
2023-05-05T11:53:34.029Z,23.36
2023-05-05T11:54:34.057Z,23.30
2023-05-05T11:55:34.004Z,23.19
2023-05-05T11:56:34.009Z,23.22
2023-05-05T11:57:33.962Z,23.28
2023-05-05T11:58:34.026Z,23.30
2023-05-05T11:59:33.959Z,23.28
2023-05-05T12:00:34.071Z,23.34
2023-05-05T12:01:33.991Z,23.36
2023-05-05T12:02:34.040Z,23.32
2023-05-05T12:03:34.058Z,23.34
2023-05-05T12:04:33.994Z,23.32
2023-05-05T12:05:36.400Z,23.32
2023-05-05T12:06:33.915Z,23.32
2023-05-05T12:07:33.928Z,22.79
2023-05-05T12:08:33.931Z,22.72
2023-05-05T12:09:33.894Z,22.73
2023-05-05T12:10:33.886Z,22.60
2023-05-05T12:11:33.907Z,22.49
2023-05-05T12:12:33.931Z,22.62
2023-05-05T12:13:33.916Z,22.58
2023-05-05T12:14:33.923Z,22.54
2023-05-05T12:15:33.863Z,22.36
2023-05-05T12:16:33.925Z,22.31
2023-05-05T12:17:33.874Z,22.37
2023-05-05T12:18:33.847Z,22.23
2023-05-05T12:19:33.838Z,22.22
2023-05-05T12:20:33.801Z,22.17
2023-05-05T12:21:33.792Z,22.16
2023-05-05T12:22:33.825Z,22.16
2023-05-05T12:23:33.826Z,22.03
2023-05-05T12:24:33.801Z,21.99
2023-05-05T12:25:33.785Z,21.56
2023-05-05T12:26:33.791Z,21.59
2023-05-05T12:27:33.764Z,21.64
2023-05-05T12:28:33.764Z,21.41
2023-05-05T12:29:33.762Z,21.34
2023-05-05T12:30:33.807Z,21.15
2023-05-05T12:31:33.753Z,21.12
2023-05-05T12:32:33.784Z,21.04
2023-05-05T12:33:33.744Z,21.05
2023-05-05T12:34:33.696Z,20.98
2023-05-05T12:35:33.714Z,20.99
2023-05-05T12:36:33.683Z,20.84
2023-05-05T12:37:33.737Z,20.98
2023-05-05T12:38:33.679Z,20.66
2023-05-05T12:39:33.663Z,20.83
2023-05-05T12:40:33.689Z,20.84
2023-05-05T12:41:33.660Z,20.92
2023-05-05T12:42:33.657Z,20.87
2023-05-05T12:43:33.682Z,20.87
2023-05-05T12:44:33.617Z,20.84
2023-05-05T12:45:33.617Z,20.87
2023-05-05T12:46:33.667Z,20.84
2023-05-05T12:47:33.683Z,20.83
2023-05-05T12:48:33.593Z,20.77
2023-05-05T12:49:33.595Z,20.67
2023-05-05T12:50:33.630Z,20.66
2023-05-05T12:51:33.610Z,20.61
2023-05-05T12:52:33.570Z,20.60
2023-05-05T12:53:33.572Z,20.67